createdAt,value
2017-02-11T00:00:49.678Z,0
2017-02-11T00:01:49.659Z,0
2017-02-11T00:02:49.643Z,0
2017-02-11T00:03:49.211Z,0
2017-02-11T00:04:49.602Z,0
2017-02-11T00:05:49.561Z,0
2017-02-11T00:06:49.539Z,0
2017-02-11T00:07:49.520Z,0
2017-02-11T00:08:49.497Z,0
2017-02-11T00:09:49.474Z,0
2017-02-11T00:10:49.501Z,0
2017-02-11T00:11:49.477Z,0
2017-02-11T00:12:49.419Z,0
2017-02-11T00:13:49.377Z,0
2017-02-11T00:14:49.369Z,0
2017-02-11T00:15:49.337Z,0
2017-02-11T00:16:49.309Z,0
2017-02-11T00:17:49.301Z,0
2017-02-11T00:18:49.262Z,0
2017-02-11T00:19:48.839Z,0
2017-02-11T00:20:49.263Z,0
2017-02-11T00:21:49.395Z,0
2017-02-11T00:22:49.174Z,0
2017-02-11T00:23:48.359Z,0
2017-02-11T00:24:49.123Z,0
2017-02-11T00:25:48.708Z,0
2017-02-11T00:26:49.131Z,0
2017-02-11T00:27:49.062Z,0
2017-02-11T00:28:49.032Z,0
2017-02-11T00:29:49.016Z,0
2017-02-11T00:30:48.995Z,0
2017-02-11T00:31:48.961Z,0
2017-02-11T00:32:48.975Z,0
2017-02-11T00:33:48.919Z,0
2017-02-11T00:34:48.901Z,0
2017-02-11T00:35:48.953Z,0
2017-02-11T00:36:48.456Z,0
2017-02-11T00:37:48.836Z,0
2017-02-11T00:38:48.810Z,0
2017-02-11T00:39:48.837Z,0
2017-02-11T00:40:48.765Z,0
2017-02-11T00:41:48.739Z,0
2017-02-11T00:42:48.308Z,0
2017-02-11T00:43:47.901Z,0
2017-02-11T00:44:48.669Z,0
2017-02-11T00:45:48.647Z,0
2017-02-11T00:46:48.622Z,0
2017-02-11T00:47:48.650Z,0
2017-02-11T00:48:48.582Z,0
2017-02-11T00:49:48.547Z,0
2017-02-11T00:50:47.742Z,0
2017-02-11T00:51:48.500Z,0
2017-02-11T00:52:48.487Z,0
2017-02-11T00:53:48.474Z,0
2017-02-11T00:54:48.055Z,0
2017-02-11T00:55:48.023Z,0
2017-02-11T00:56:48.048Z,0
2017-02-11T00:57:48.373Z,0
2017-02-11T00:58:48.347Z,0
2017-02-11T00:59:48.322Z,0
2017-02-11T01:00:47.907Z,0
2017-02-11T01:01:47.880Z,0
2017-02-11T01:02:48.294Z,0
2017-02-11T01:03:48.224Z,0
2017-02-11T01:04:48.226Z,0
2017-02-11T01:05:48.183Z,0
2017-02-11T01:06:48.160Z,0
2017-02-11T01:07:48.135Z,0
2017-02-11T01:08:48.110Z,0
2017-02-11T01:09:47.703Z,0
2017-02-11T01:10:48.073Z,0
2017-02-11T01:11:47.657Z,0
2017-02-11T01:12:48.035Z,0
2017-02-11T01:13:48.012Z,0
2017-02-11T01:14:48.030Z,0
2017-02-11T01:15:47.962Z,0
2017-02-11T01:16:47.938Z,0
2017-02-11T01:17:47.919Z,0
2017-02-11T01:18:47.887Z,0
2017-02-11T01:19:47.872Z,0
2017-02-11T01:20:47.445Z,0
2017-02-11T01:21:47.820Z,0
2017-02-11T01:22:47.795Z,0
2017-02-11T01:23:47.776Z,0
2017-02-11T01:24:47.754Z,0
2017-02-11T01:25:47.720Z,0
2017-02-11T01:26:47.708Z,0
2017-02-11T01:27:46.886Z,0
2017-02-11T01:28:47.654Z,0
2017-02-11T01:29:47.641Z,0
2017-02-11T01:30:47.609Z,0
2017-02-11T01:31:47.591Z,0
2017-02-11T01:32:47.572Z,0
2017-02-11T01:33:47.567Z,0
2017-02-11T01:34:47.528Z,0
2017-02-11T01:35:47.495Z,0
2017-02-11T01:36:47.501Z,0
2017-02-11T01:37:47.453Z,0
2017-02-11T01:38:47.457Z,0
2017-02-11T01:39:47.438Z,0
2017-02-11T01:40:47.381Z,0
2017-02-11T01:41:47.355Z,0
2017-02-11T01:42:47.332Z,0
2017-02-11T01:43:46.914Z,0
2017-02-11T01:44:47.308Z,0
2017-02-11T01:45:47.263Z,0
2017-02-11T01:46:47.249Z,0
2017-02-11T01:47:47.219Z,0
2017-02-11T01:48:46.811Z,0
2017-02-11T01:49:47.175Z,0
2017-02-11T01:50:47.234Z,0
2017-02-11T01:51:47.128Z,0
2017-02-11T01:52:47.129Z,0
2017-02-11T01:53:47.100Z,0
2017-02-11T01:54:47.077Z,0
2017-02-11T01:55:46.301Z,0
2017-02-11T01:56:47.076Z,0
2017-02-11T01:57:46.988Z,0
2017-02-11T01:58:46.981Z,0
2017-02-11T01:59:46.946Z,0
2017-02-11T02:00:46.926Z,0
2017-02-11T02:01:46.902Z,0
2017-02-11T02:02:46.886Z,0
2017-02-11T02:03:46.855Z,0
2017-02-11T02:04:46.836Z,0
2017-02-11T02:05:46.855Z,0
2017-02-11T02:06:46.784Z,0
2017-02-11T02:07:46.819Z,0
2017-02-11T02:08:46.739Z,0
2017-02-11T02:09:46.724Z,0
2017-02-11T02:10:46.694Z,0
2017-02-11T02:11:46.666Z,0
2017-02-11T02:12:46.648Z,0
2017-02-11T02:13:46.633Z,0
2017-02-11T02:14:46.599Z,0
2017-02-11T02:15:46.583Z,0
2017-02-11T02:16:46.563Z,0
2017-02-11T02:17:46.534Z,0
2017-02-11T02:18:46.515Z,0
2017-02-11T02:19:46.490Z,0
2017-02-11T02:20:46.471Z,0
2017-02-11T02:21:46.661Z,0
2017-02-11T02:22:46.020Z,0
2017-02-11T02:23:46.402Z,0
2017-02-11T02:24:46.383Z,0
2017-02-11T02:25:46.359Z,0
2017-02-11T02:26:46.328Z,0
2017-02-11T02:27:46.313Z,0
2017-02-11T02:28:46.287Z,0
2017-02-11T02:29:46.281Z,0
2017-02-11T02:30:46.244Z,0
2017-02-11T02:31:46.232Z,0
2017-02-11T02:32:46.194Z,0
2017-02-11T02:33:45.790Z,0
2017-02-11T02:34:46.152Z,0
2017-02-11T02:35:46.186Z,0
2017-02-11T02:36:46.100Z,0
2017-02-11T02:37:46.113Z,0
2017-02-11T02:38:46.058Z,0
2017-02-11T02:39:46.034Z,0
2017-02-11T02:40:46.011Z,0
2017-02-11T02:41:45.983Z,0
2017-02-11T02:42:45.576Z,0
2017-02-11T02:43:45.942Z,0
2017-02-11T02:44:45.925Z,0
2017-02-11T02:45:45.897Z,0
2017-02-11T02:46:45.876Z,0
2017-02-11T02:47:45.848Z,0
2017-02-11T02:48:45.875Z,0
2017-02-11T02:49:45.411Z,0
2017-02-11T02:50:45.834Z,0
2017-02-11T02:51:45.753Z,0
2017-02-11T02:52:45.747Z,0
2017-02-11T02:53:45.349Z,0
2017-02-11T02:54:45.291Z,0
2017-02-11T02:55:45.681Z,0
2017-02-11T02:56:45.645Z,0
2017-02-11T02:57:45.623Z,0
2017-02-11T02:58:45.603Z,0
2017-02-11T02:59:45.182Z,0
2017-02-11T03:00:45.553Z,0
2017-02-11T03:01:45.537Z,0
2017-02-11T03:02:45.510Z,0
2017-02-11T03:03:45.494Z,0
2017-02-11T03:04:45.462Z,0
2017-02-11T03:05:45.443Z,0
2017-02-11T03:06:45.452Z,0
2017-02-11T03:07:45.402Z,0
2017-02-11T03:08:45.384Z,0
2017-02-11T03:09:45.356Z,0
2017-02-11T03:10:45.329Z,0
2017-02-11T03:11:45.303Z,0
2017-02-11T03:12:45.275Z,0
2017-02-11T03:13:45.261Z,0
2017-02-11T03:14:45.233Z,0
2017-02-11T03:15:45.216Z,0
2017-02-11T03:16:45.189Z,0
2017-02-11T03:17:45.171Z,0
2017-02-11T03:18:44.756Z,0
2017-02-11T03:19:45.119Z,0
2017-02-11T03:20:45.100Z,0
2017-02-11T03:21:45.075Z,0
2017-02-11T03:22:44.657Z,0
2017-02-11T03:23:45.026Z,0
2017-02-11T03:24:44.606Z,0
2017-02-11T03:25:44.980Z,0
2017-02-11T03:26:44.958Z,0
2017-02-11T03:27:44.971Z,0
2017-02-11T03:28:44.917Z,0
2017-02-11T03:29:44.894Z,0
2017-02-11T03:30:44.873Z,0
2017-02-11T03:31:44.848Z,0
2017-02-11T03:32:44.818Z,0
2017-02-11T03:33:44.797Z,0
2017-02-11T03:34:44.780Z,0
2017-02-11T03:35:44.752Z,0
2017-02-11T03:36:44.391Z,0
2017-02-11T03:37:44.704Z,0
2017-02-11T03:38:44.738Z,0
2017-02-11T03:39:44.668Z,0
2017-02-11T03:40:44.643Z,0
2017-02-11T03:41:44.669Z,0
2017-02-11T03:42:44.589Z,0
2017-02-11T03:43:44.575Z,0
2017-02-11T03:44:44.604Z,0
2017-02-11T03:45:44.518Z,0
2017-02-11T03:46:44.499Z,0
2017-02-11T03:47:44.487Z,0
2017-02-11T03:48:44.452Z,0
2017-02-11T03:49:44.452Z,0
2017-02-11T03:50:44.410Z,0
2017-02-11T03:51:44.392Z,0
2017-02-11T03:52:44.352Z,0
2017-02-11T03:53:44.340Z,0
2017-02-11T03:54:44.308Z,0
2017-02-11T03:55:44.288Z,0
2017-02-11T03:56:44.276Z,0
2017-02-11T03:57:44.244Z,0
2017-02-11T03:58:44.222Z,0
2017-02-11T03:59:44.196Z,0
2017-02-11T04:00:44.176Z,0
2017-02-11T04:01:44.199Z,0
2017-02-11T04:02:44.125Z,0
2017-02-11T04:03:44.104Z,0
2017-02-11T04:04:44.100Z,0
2017-02-11T04:05:44.112Z,0
2017-02-11T04:06:44.039Z,0
2017-02-11T04:07:44.006Z,0
2017-02-11T04:08:43.983Z,0
2017-02-11T04:09:43.969Z,0
2017-02-11T04:10:43.938Z,0
2017-02-11T04:11:43.924Z,0
2017-02-11T04:12:43.899Z,0
2017-02-11T04:13:43.879Z,0
2017-02-11T04:14:43.852Z,0
2017-02-11T04:15:43.828Z,0
2017-02-11T04:16:43.811Z,0
2017-02-11T04:17:43.781Z,0
2017-02-11T04:18:43.761Z,0
2017-02-11T04:19:43.338Z,0
2017-02-11T04:20:43.709Z,0
2017-02-11T04:21:44.183Z,0
2017-02-11T04:22:43.664Z,0
2017-02-11T04:23:43.243Z,0
2017-02-11T04:24:43.624Z,0
2017-02-11T04:25:43.592Z,0
2017-02-11T04:26:43.580Z,0
2017-02-11T04:27:43.148Z,0
2017-02-11T04:28:43.528Z,0
2017-02-11T04:29:43.512Z,0
2017-02-11T04:30:43.486Z,0
2017-02-11T04:31:43.100Z,0
2017-02-11T04:32:43.437Z,0
2017-02-11T04:33:43.456Z,0
2017-02-11T04:34:43.386Z,0
2017-02-11T04:35:43.363Z,0
2017-02-11T04:36:43.393Z,0
2017-02-11T04:37:43.319Z,0
2017-02-11T04:38:43.351Z,0
2017-02-11T04:39:43.275Z,0
2017-02-11T04:40:43.274Z,0
2017-02-11T04:41:43.230Z,0
2017-02-11T04:42:43.205Z,0
2017-02-11T04:43:43.238Z,0
2017-02-11T04:44:42.756Z,0
2017-02-11T04:45:43.136Z,0
2017-02-11T04:46:43.110Z,0
2017-02-11T04:47:43.100Z,0
2017-02-11T04:48:43.072Z,0
2017-02-11T04:49:43.040Z,0
2017-02-11T04:50:43.062Z,0
2017-02-11T04:51:43.050Z,0
2017-02-11T04:52:43.003Z,0
2017-02-11T04:53:42.610Z,0
2017-02-11T04:54:42.926Z,0
2017-02-11T04:55:42.906Z,0
2017-02-11T04:56:42.888Z,0
2017-02-11T04:57:42.865Z,0
2017-02-11T04:58:42.838Z,0
2017-02-11T04:59:42.814Z,0
2017-02-11T05:00:42.393Z,0
2017-02-11T05:01:42.776Z,0
2017-02-11T05:02:42.347Z,0
2017-02-11T05:03:42.820Z,0
2017-02-11T05:04:42.696Z,0
2017-02-11T05:05:42.722Z,0
2017-02-11T05:06:42.701Z,0
2017-02-11T05:07:42.628Z,0
2017-02-11T05:08:42.607Z,0
2017-02-11T05:09:42.590Z,0
2017-02-11T05:10:42.565Z,0
2017-02-11T05:11:42.137Z,0
2017-02-11T05:12:42.120Z,0
2017-02-11T05:13:42.496Z,0
2017-02-11T05:14:42.109Z,0
2017-02-11T05:15:42.460Z,0
2017-02-11T05:16:42.438Z,0
2017-02-11T05:17:42.406Z,0
2017-02-11T05:18:41.977Z,0
2017-02-11T05:19:42.358Z,0
2017-02-11T05:20:42.330Z,0
2017-02-11T05:21:41.905Z,0
2017-02-11T05:22:41.882Z,0
2017-02-11T05:23:42.264Z,0
2017-02-11T05:24:42.238Z,0
2017-02-11T05:25:42.213Z,0
2017-02-11T05:26:42.190Z,0
2017-02-11T05:27:42.184Z,0
2017-02-11T05:28:42.148Z,0
2017-02-11T05:29:42.144Z,0
2017-02-11T05:30:42.145Z,0
2017-02-11T05:31:42.077Z,0
2017-02-11T05:32:42.098Z,0
2017-02-11T05:33:42.020Z,0
2017-02-11T05:34:42.008Z,0
2017-02-11T05:35:42.010Z,0
2017-02-11T05:36:41.953Z,0
2017-02-11T05:37:41.941Z,0
2017-02-11T05:38:41.521Z,0
2017-02-11T05:39:41.494Z,0
2017-02-11T05:40:41.860Z,0
2017-02-11T05:41:41.847Z,0
2017-02-11T05:42:41.866Z,0
2017-02-11T05:43:41.795Z,0
2017-02-11T05:44:41.770Z,0
2017-02-11T05:45:41.748Z,0
2017-02-11T05:46:41.335Z,0
2017-02-11T05:47:41.710Z,0
2017-02-11T05:48:41.690Z,0
2017-02-11T05:49:41.705Z,0
2017-02-11T05:50:41.640Z,0
2017-02-11T05:51:41.615Z,0
2017-02-11T05:52:41.590Z,0
2017-02-11T05:53:41.564Z,0
2017-02-11T05:54:41.557Z,0
2017-02-11T05:55:41.552Z,0
2017-02-11T05:56:41.497Z,0
2017-02-11T05:57:41.476Z,0
2017-02-11T05:58:41.086Z,0
2017-02-11T05:59:41.444Z,0
2017-02-11T06:00:41.423Z,0
2017-02-11T06:01:41.385Z,0
2017-02-11T06:02:41.361Z,0
2017-02-11T06:03:41.340Z,0
2017-02-11T06:04:41.314Z,0
2017-02-11T06:05:41.287Z,0
2017-02-11T06:06:41.262Z,0
2017-02-11T06:07:41.239Z,0
2017-02-11T06:08:41.216Z,0
2017-02-11T06:09:41.196Z,0
2017-02-11T06:10:41.172Z,0
2017-02-11T06:11:40.756Z,0
2017-02-11T06:12:41.125Z,0
2017-02-11T06:13:41.104Z,0
2017-02-11T06:14:41.086Z,0
2017-02-11T06:15:41.061Z,0
2017-02-11T06:16:41.037Z,0
2017-02-11T06:17:41.014Z,0
2017-02-11T06:18:40.993Z,0
2017-02-11T06:19:40.962Z,0
2017-02-11T06:20:40.942Z,0
2017-02-11T06:21:40.920Z,0
2017-02-11T06:22:40.897Z,0
2017-02-11T06:23:40.875Z,0
2017-02-11T06:24:40.843Z,0
2017-02-11T06:25:40.826Z,0
2017-02-11T06:26:40.411Z,0
2017-02-11T06:27:40.781Z,0
2017-02-11T06:28:40.753Z,0
2017-02-11T06:29:40.340Z,0
2017-02-11T06:30:40.707Z,0
2017-02-11T06:31:40.684Z,0
2017-02-11T06:32:40.661Z,0
2017-02-11T06:33:40.639Z,0
2017-02-11T06:34:40.622Z,0
2017-02-11T06:35:40.591Z,0
2017-02-11T06:36:40.170Z,0
2017-02-11T06:37:40.547Z,0
2017-02-11T06:38:40.124Z,0
2017-02-11T06:39:40.513Z,0
2017-02-11T06:40:40.475Z,0
2017-02-11T06:41:40.447Z,0
2017-02-11T06:42:40.439Z,0
2017-02-11T06:43:40.412Z,0
2017-02-11T06:44:40.387Z,0
2017-02-11T06:45:40.364Z,0
2017-02-11T06:46:40.337Z,0
2017-02-11T06:47:40.324Z,0
2017-02-11T06:48:40.292Z,0
2017-02-11T06:49:40.266Z,0
2017-02-11T06:50:40.241Z,0
2017-02-11T06:51:39.424Z,0
2017-02-11T06:52:40.195Z,0
2017-02-11T06:53:40.173Z,0
2017-02-11T06:54:40.201Z,0
2017-02-11T06:55:40.129Z,0
2017-02-11T06:56:39.705Z,0
2017-02-11T06:57:40.078Z,0
2017-02-11T06:58:40.051Z,0
2017-02-11T06:59:40.039Z,0
2017-02-11T07:00:40.023Z,0
2017-02-11T07:01:39.593Z,0
2017-02-11T07:02:39.969Z,0
2017-02-11T07:03:39.950Z,0
2017-02-11T07:04:39.924Z,0
2017-02-11T07:05:39.550Z,0
2017-02-11T07:06:39.875Z,0
2017-02-11T07:07:39.844Z,0
2017-02-11T07:08:39.827Z,0
2017-02-11T07:09:39.800Z,0
2017-02-11T07:10:39.777Z,0
2017-02-11T07:11:39.751Z,0
2017-02-11T07:12:39.727Z,0
2017-02-11T07:13:39.757Z,0
2017-02-11T07:14:39.727Z,0
2017-02-11T07:15:39.657Z,0
2017-02-11T07:16:39.640Z,0
2017-02-11T07:17:39.621Z,0
2017-02-11T07:18:39.589Z,5
2017-02-11T07:19:39.576Z,5
2017-02-11T07:20:39.547Z,5
2017-02-11T07:21:39.524Z,5
2017-02-11T07:22:39.536Z,5
2017-02-11T07:23:39.486Z,5
2017-02-11T07:24:39.453Z,5
2017-02-11T07:25:39.033Z,5
2017-02-11T07:26:39.411Z,5
2017-02-11T07:27:39.394Z,5
2017-02-11T07:28:39.359Z,5
2017-02-11T07:29:39.364Z,5
2017-02-11T07:30:39.314Z,5
2017-02-11T07:31:38.933Z,5
2017-02-11T07:32:38.891Z,5
2017-02-11T07:33:39.246Z,5
2017-02-11T07:34:39.222Z,5
2017-02-11T07:35:38.808Z,5
2017-02-11T07:36:39.174Z,5
2017-02-11T07:37:39.151Z,5
2017-02-11T07:38:39.136Z,5
2017-02-11T07:39:39.145Z,5
2017-02-11T07:40:39.112Z,5
2017-02-11T07:41:39.065Z,5
2017-02-11T07:42:39.042Z,5
2017-02-11T07:43:39.038Z,5
2017-02-11T07:44:39.008Z,5
2017-02-11T07:45:39.018Z,5
2017-02-11T07:46:39.006Z,5
2017-02-11T07:47:38.937Z,5
2017-02-11T07:48:38.906Z,5
2017-02-11T07:49:38.500Z,5
2017-02-11T07:50:38.870Z,5
2017-02-11T07:51:38.839Z,5
2017-02-11T07:52:38.820Z,10
2017-02-11T07:53:38.784Z,15
2017-02-11T07:54:38.759Z,15
2017-02-11T07:55:37.947Z,20
2017-02-11T07:56:38.729Z,25
2017-02-11T07:57:38.296Z,25
2017-02-11T07:58:38.673Z,25
2017-02-11T07:59:38.649Z,25
2017-02-11T08:00:38.641Z,25
2017-02-11T08:01:38.609Z,25
2017-02-11T08:02:38.591Z,30
2017-02-11T08:03:38.576Z,25
2017-02-11T08:04:38.533Z,25
2017-02-11T08:05:38.509Z,25
2017-02-11T08:06:38.526Z,25
2017-02-11T08:07:38.495Z,20
2017-02-11T08:08:38.444Z,25
2017-02-11T08:09:38.428Z,25
2017-02-11T08:10:38.398Z,25
2017-02-11T08:11:38.374Z,30
2017-02-11T08:12:38.378Z,35
2017-02-11T08:13:38.335Z,40
2017-02-11T08:14:37.914Z,45
2017-02-11T08:15:37.901Z,50
2017-02-11T08:16:38.270Z,50
2017-02-11T08:17:38.286Z,50
2017-02-11T08:18:38.265Z,55
2017-02-11T08:19:37.801Z,60
2017-02-11T08:20:37.781Z,60
2017-02-11T08:21:37.750Z,60
2017-02-11T08:22:37.935Z,55
2017-02-11T08:23:37.714Z,55
2017-02-11T08:24:38.079Z,55
2017-02-11T08:25:38.066Z,55
2017-02-11T08:26:38.035Z,55
2017-02-11T08:27:38.016Z,55
2017-02-11T08:28:37.650Z,55
2017-02-11T08:29:37.975Z,50
2017-02-11T08:30:37.997Z,50
2017-02-11T08:31:37.931Z,55
2017-02-11T08:32:37.507Z,55
2017-02-11T08:33:37.890Z,55
2017-02-11T08:34:37.864Z,60
2017-02-11T08:35:37.843Z,65
2017-02-11T08:36:37.818Z,65
2017-02-11T08:37:37.793Z,70
2017-02-11T08:38:37.763Z,75
2017-02-11T08:39:37.747Z,75
2017-02-11T08:40:37.330Z,70
2017-02-11T08:41:37.710Z,60
2017-02-11T08:42:37.682Z,55
2017-02-11T08:43:37.663Z,50
2017-02-11T08:44:37.635Z,45
2017-02-11T08:45:37.668Z,50
2017-02-11T08:46:37.199Z,55
2017-02-11T08:47:37.567Z,55
2017-02-11T08:48:37.150Z,50
2017-02-11T08:49:37.521Z,45
2017-02-11T08:50:37.501Z,45
2017-02-11T08:51:37.534Z,55
2017-02-11T08:52:37.464Z,70
2017-02-11T08:53:37.435Z,80
2017-02-11T08:54:37.416Z,75
2017-02-11T08:55:37.000Z,75
2017-02-11T08:56:37.370Z,75
2017-02-11T08:57:37.342Z,70
2017-02-11T08:58:37.353Z,65
2017-02-11T08:59:37.301Z,60
2017-02-11T09:00:37.283Z,55
2017-02-11T09:01:36.860Z,60
2017-02-11T09:02:36.832Z,60
2017-02-11T09:03:37.215Z,55
2017-02-11T09:04:37.191Z,55
2017-02-11T09:05:37.179Z,55
2017-02-11T09:06:37.146Z,55
2017-02-11T09:07:37.122Z,50
2017-02-11T09:08:37.111Z,45
2017-02-11T09:09:37.084Z,35
2017-02-11T09:10:37.066Z,35
2017-02-11T09:11:37.041Z,30
2017-02-11T09:12:37.014Z,35
2017-02-11T09:13:37.005Z,35
2017-02-11T09:14:36.970Z,40
2017-02-11T09:15:36.949Z,40
2017-02-11T09:16:36.924Z,45
2017-02-11T09:17:36.960Z,50
2017-02-11T09:18:36.889Z,50
2017-02-11T09:19:36.464Z,50
2017-02-11T09:20:36.839Z,55
2017-02-11T09:21:36.821Z,55
2017-02-11T09:22:36.793Z,55
2017-02-11T09:23:36.771Z,55
2017-02-11T09:24:36.754Z,55
2017-02-11T09:25:36.749Z,60
2017-02-11T09:26:36.759Z,65
2017-02-11T09:27:36.685Z,70
2017-02-11T09:28:36.668Z,75
2017-02-11T09:29:36.647Z,85
2017-02-11T09:30:36.626Z,85
2017-02-11T09:31:36.605Z,90
2017-02-11T09:32:36.192Z,100
2017-02-11T09:33:36.557Z,100
2017-02-11T09:34:36.533Z,100
2017-02-11T09:35:36.520Z,95
2017-02-11T09:36:36.499Z,95
2017-02-11T09:37:36.468Z,95
2017-02-11T09:38:36.455Z,90
2017-02-11T09:39:36.426Z,80
2017-02-11T09:40:36.007Z,75
2017-02-11T09:41:36.382Z,70
2017-02-11T09:42:36.361Z,60
2017-02-11T09:43:36.341Z,55
2017-02-11T09:44:36.342Z,55
2017-02-11T09:45:36.297Z,55
2017-02-11T09:46:36.275Z,55
2017-02-11T09:47:36.256Z,50
2017-02-11T09:48:36.229Z,50
2017-02-11T09:49:35.820Z,45
2017-02-11T09:50:36.190Z,45
2017-02-11T09:51:35.821Z,45
2017-02-11T09:52:35.759Z,45
2017-02-11T09:53:36.127Z,45
2017-02-11T09:54:36.107Z,45
2017-02-11T09:55:35.285Z,50
2017-02-11T09:56:36.060Z,55
2017-02-11T09:57:35.649Z,55
2017-02-11T09:58:36.017Z,55
2017-02-11T10:00:04.022Z,55
2017-02-11T10:00:35.974Z,55
2017-02-11T10:01:35.954Z,55
2017-02-11T10:02:35.929Z,55
2017-02-11T10:03:35.936Z,50
2017-02-11T10:04:35.882Z,50
2017-02-11T10:05:35.471Z,55
2017-02-11T10:06:35.839Z,55
2017-02-11T10:07:35.472Z,60
2017-02-11T10:08:35.410Z,65
2017-02-11T10:09:35.777Z,70
2017-02-11T10:10:35.770Z,70
2017-02-11T10:11:35.336Z,75
2017-02-11T10:12:34.919Z,75
2017-02-11T10:13:35.691Z,65
2017-02-11T10:14:35.678Z,60
2017-02-11T10:15:35.644Z,55
2017-02-11T10:16:35.629Z,50
2017-02-11T10:17:35.607Z,45
2017-02-11T10:18:35.618Z,40
2017-02-11T10:19:35.575Z,40
2017-02-11T10:20:35.541Z,40
2017-02-11T10:21:35.511Z,40
2017-02-11T10:22:35.695Z,45
2017-02-11T10:23:35.078Z,45
2017-02-11T10:24:35.448Z,45
2017-02-11T10:25:34.639Z,40
2017-02-11T10:26:35.408Z,35
2017-02-11T10:27:35.392Z,30
2017-02-11T10:28:35.022Z,30
2017-02-11T10:29:35.344Z,25
2017-02-11T10:30:35.320Z,25
2017-02-11T10:31:35.295Z,25
2017-02-11T10:32:35.279Z,25
2017-02-11T10:33:35.260Z,25
2017-02-11T10:34:35.238Z,30
2017-02-11T10:35:35.212Z,30
2017-02-11T10:36:35.198Z,35
2017-02-11T10:37:35.173Z,40
2017-02-11T10:38:35.151Z,40
2017-02-11T10:39:35.130Z,40
2017-02-11T10:40:35.145Z,45
2017-02-11T10:42:04.078Z,50
2017-02-11T10:42:35.068Z,55
2017-02-11T10:43:34.656Z,60
2017-02-11T10:44:34.625Z,65
2017-02-11T10:45:34.996Z,80
2017-02-11T10:46:34.973Z,85
2017-02-11T10:47:34.952Z,90
2017-02-11T10:48:34.549Z,85
2017-02-11T10:49:34.971Z,80
2017-02-11T10:50:34.902Z,80
2017-02-11T10:51:34.862Z,85
2017-02-11T10:52:34.849Z,75
2017-02-11T10:53:34.816Z,75
2017-02-11T10:54:34.412Z,75
2017-02-11T10:55:34.806Z,80
2017-02-11T10:56:34.761Z,80
2017-02-11T10:57:34.737Z,85
2017-02-11T10:58:34.716Z,90
2017-02-11T10:59:34.694Z,100
2017-02-11T11:00:34.280Z,100
2017-02-11T11:01:34.681Z,105
2017-02-11T11:02:34.632Z,105
2017-02-11T11:03:34.608Z,110
2017-02-11T11:04:33.790Z,120
2017-02-11T11:05:34.204Z,125
2017-02-11T11:06:34.541Z,120
2017-02-11T11:07:34.515Z,125
2017-02-11T11:08:34.549Z,120
2017-02-11T11:09:34.086Z,115
2017-02-11T11:10:34.144Z,115
2017-02-11T11:11:34.438Z,115
2017-02-11T11:12:34.023Z,105
2017-02-11T11:13:34.395Z,100
2017-02-11T11:14:34.381Z,95
2017-02-11T11:15:34.359Z,90
2017-02-11T11:16:34.331Z,90
2017-02-11T11:17:34.315Z,90
2017-02-11T11:18:34.293Z,95
2017-02-11T11:19:34.269Z,95
2017-02-11T11:20:34.251Z,105
2017-02-11T11:21:34.231Z,105
2017-02-11T11:22:34.208Z,110
2017-02-11T11:23:34.188Z,125
2017-02-11T11:24:34.171Z,145
2017-02-11T11:25:34.170Z,150
2017-02-11T11:26:34.129Z,145
2017-02-11T11:27:33.710Z,140
2017-02-11T11:28:34.096Z,130
2017-02-11T11:29:33.666Z,125
2017-02-11T11:30:33.654Z,125
2017-02-11T11:31:33.636Z,130
2017-02-11T11:32:33.262Z,140
2017-02-11T11:33:33.990Z,155
2017-02-11T11:34:33.959Z,170
2017-02-11T11:35:33.158Z,190
2017-02-11T11:36:33.555Z,195
2017-02-11T11:37:33.921Z,200
2017-02-11T11:38:33.917Z,210
2017-02-11T11:39:33.499Z,210
2017-02-11T11:40:33.844Z,220
2017-02-11T11:41:33.820Z,230
2017-02-11T11:42:33.803Z,220
2017-02-11T11:43:33.788Z,225
2017-02-11T11:44:33.419Z,255
2017-02-11T11:45:33.742Z,260
2017-02-11T11:46:33.776Z,220
2017-02-11T11:47:33.301Z,205
2017-02-11T11:48:33.300Z,220
2017-02-11T11:49:33.269Z,230
2017-02-11T11:50:33.241Z,250
2017-02-11T11:51:33.225Z,255
2017-02-11T11:52:33.206Z,250
2017-02-11T11:53:33.634Z,205
2017-02-11T11:54:33.187Z,190
2017-02-11T11:55:32.762Z,180
2017-02-11T11:56:33.126Z,180
2017-02-11T11:57:33.535Z,165
2017-02-11T11:58:33.088Z,140
2017-02-11T11:59:33.074Z,130
2017-02-11T12:00:33.445Z,130
2017-02-11T12:01:33.038Z,120
2017-02-11T12:02:33.010Z,110
2017-02-11T12:03:33.396Z,105
2017-02-11T12:04:32.983Z,105
2017-02-11T12:05:32.955Z,105
2017-02-11T12:06:33.334Z,95
2017-02-11T12:07:33.306Z,85
2017-02-11T12:08:33.299Z,85
2017-02-11T12:09:32.894Z,85
2017-02-11T12:10:33.271Z,85
2017-02-11T12:11:33.274Z,75
2017-02-11T12:12:33.231Z,75
2017-02-11T12:13:33.207Z,80
2017-02-11T12:14:33.175Z,75
2017-02-11T12:15:33.169Z,75
2017-02-11T12:16:33.139Z,75
2017-02-11T12:17:33.114Z,75
2017-02-11T12:18:32.700Z,70
2017-02-11T12:19:32.290Z,75
2017-02-11T12:20:33.067Z,80
2017-02-11T12:21:32.647Z,90
2017-02-11T12:22:33.238Z,85
2017-02-11T12:23:32.619Z,80
2017-02-11T12:24:32.988Z,90
2017-02-11T12:25:32.963Z,105
2017-02-11T12:26:32.160Z,110
2017-02-11T12:27:32.935Z,120
2017-02-11T12:28:32.921Z,120
2017-02-11T12:29:32.884Z,125
2017-02-11T12:30:32.467Z,125
2017-02-11T12:31:32.849Z,135
2017-02-11T12:32:32.827Z,140
2017-02-11T12:33:32.418Z,150
2017-02-11T12:34:32.808Z,160
2017-02-11T12:35:32.767Z,175
2017-02-11T12:36:32.759Z,185
2017-02-11T12:37:32.726Z,185
2017-02-11T12:38:32.713Z,190
2017-02-11T12:39:31.895Z,185
2017-02-11T12:40:32.283Z,195
2017-02-11T12:41:32.700Z,205
2017-02-11T12:42:32.636Z,220
2017-02-11T12:43:32.618Z,230
2017-02-11T12:44:32.593Z,240
2017-02-11T12:45:32.576Z,255
2017-02-11T12:46:32.565Z,265
2017-02-11T12:47:32.540Z,255
2017-02-11T12:48:32.117Z,235
2017-02-11T12:49:32.102Z,220
2017-02-11T12:50:32.077Z,210
2017-02-11T12:51:32.100Z,225
2017-02-11T12:52:32.441Z,240
2017-02-11T12:53:32.045Z,260
2017-02-11T12:54:32.407Z,305
2017-02-11T12:55:31.995Z,355
2017-02-11T12:56:32.364Z,375
2017-02-11T12:57:32.357Z,365
2017-02-11T12:58:32.337Z,350
2017-02-11T12:59:32.307Z,315
2017-02-11T13:00:32.302Z,340
2017-02-11T13:01:31.485Z,345
2017-02-11T13:02:32.263Z,350
2017-02-11T13:03:32.246Z,315
2017-02-11T13:04:32.223Z,290
2017-02-11T13:05:32.210Z,275
2017-02-11T13:06:31.405Z,250
2017-02-11T13:07:32.198Z,250
2017-02-11T13:08:31.768Z,285
2017-02-11T13:09:32.143Z,310
2017-02-11T13:10:32.119Z,310
2017-02-11T13:11:32.121Z,320
2017-02-11T13:12:31.743Z,315
2017-02-11T13:13:31.727Z,310
2017-02-11T13:14:32.057Z,315
2017-02-11T13:15:31.694Z,290
2017-02-11T13:16:32.033Z,245
2017-02-11T13:17:31.227Z,235
2017-02-11T13:18:31.997Z,295
2017-02-11T13:19:31.585Z,320
2017-02-11T13:20:31.985Z,565
2017-02-11T13:21:31.597Z,655
2017-02-11T13:22:31.928Z,670
2017-02-11T13:23:31.523Z,680
2017-02-11T13:24:31.888Z,620
2017-02-11T13:25:31.483Z,590
2017-02-11T13:26:31.070Z,580
2017-02-11T13:27:31.845Z,570
2017-02-11T13:28:31.856Z,490
2017-02-11T13:29:31.828Z,315
2017-02-11T13:30:31.810Z,535
2017-02-11T13:31:31.398Z,535
2017-02-11T13:32:31.775Z,485
2017-02-11T13:33:31.766Z,300
2017-02-11T13:34:31.352Z,290
2017-02-11T13:35:31.748Z,275
2017-02-11T13:36:31.725Z,270
2017-02-11T13:37:31.718Z,280
2017-02-11T13:38:31.705Z,280
2017-02-11T13:39:31.693Z,300
2017-02-11T13:40:31.674Z,285
2017-02-11T13:41:31.667Z,305
2017-02-11T13:42:31.651Z,305
2017-02-11T13:43:31.241Z,300
2017-02-11T13:44:31.625Z,300
2017-02-11T13:45:31.213Z,310
2017-02-11T13:46:31.207Z,345
2017-02-11T13:47:31.583Z,455
2017-02-11T13:48:31.582Z,500
2017-02-11T13:49:31.197Z,455
2017-02-11T13:50:31.546Z,425
2017-02-11T13:51:31.534Z,410
2017-02-11T13:52:31.523Z,420
2017-02-11T13:53:31.133Z,405
2017-02-11T13:54:31.535Z,420
2017-02-11T13:55:31.075Z,410
2017-02-11T13:56:31.078Z,405
2017-02-11T13:57:31.475Z,380
2017-02-11T13:58:31.447Z,405
2017-02-11T13:59:31.043Z,415
2017-02-11T14:00:31.411Z,390
2017-02-11T14:01:31.404Z,395
2017-02-11T14:02:31.399Z,410
2017-02-11T14:03:31.396Z,395
2017-02-11T14:04:30.974Z,385
2017-02-11T14:05:31.356Z,370
2017-02-11T14:06:31.349Z,295
2017-02-11T14:07:31.331Z,310
2017-02-11T14:08:30.931Z,345
2017-02-11T14:09:31.321Z,330
2017-02-11T14:10:31.295Z,230
2017-02-11T14:11:31.323Z,225
2017-02-11T14:12:31.277Z,210
2017-02-11T14:13:31.265Z,175
2017-02-11T14:14:31.252Z,160
2017-02-11T14:15:31.276Z,140
2017-02-11T14:16:31.230Z,140
2017-02-11T14:17:31.212Z,140
2017-02-11T14:18:31.256Z,140
2017-02-11T14:19:31.184Z,145
2017-02-11T14:20:31.217Z,140
2017-02-11T14:21:31.186Z,115
2017-02-11T14:22:31.569Z,105
2017-02-11T14:23:31.146Z,115
2017-02-11T14:24:31.131Z,120
2017-02-11T14:25:31.114Z,130